Time;durP1;ratioP1;P1;durP2;ratioP2;P2;SDS_P1;SDS_P2;PMS_P1;PMS_P2;Temp;Humidity;BMP_temperature;BMP_pressure;BME280_temperature;BME280_humidity;BME280_pressure;Samples;Min_cycle;Max_cycle;Signal;HPM_P1;HPM_P2
2021/04/01 00:00:49;;;;;;;13.90;6.85;;;;;;;14.24;33.87;72163.38;4995081;28;20030;-84
2021/04/01 00:03:17;;;;;;;31.03;7.40;;;;;;;14.26;32.67;72162.41;4977627;28;20038;-83
2021/04/01 00:05:44;;;;;;;14.98;5.85;;;;;;;15.60;32.58;72317.19;4977760;28;20281;-83
2021/04/01 00:08:11;;;;;;;17.38;6.65;;;;;;;14.23;31.71;72162.16;4995390;28;20480;-81
2021/04/01 00:10:41;;;;;;;19.05;7.60;;;;;;;15.27;32.29;72276.16;4976791;28;20399;-83
2021/04/01 00:13:11;;;;;;;19.90;6.47;;;;;;;15.04;31.56;72255.41;4994530;28;20026;-84
2021/04/01 00:15:41;;;;;;;9.17;5.67;;;;;;;15.94;30.86;72359.47;4977052;28;20041;-83
2021/04/01 00:18:13;;;;;;;20.25;5.72;;;;;;;14.95;30.02;72242.47;4976920;28;20388;-84
2021/04/01 00:20:39;;;;;;;16.50;6.10;;;;;;;15.88;29.96;72349.47;4995098;28;20041;-84
2021/04/01 00:23:06;;;;;;;21.48;5.70;;;;;;;15.57;30.27;72313.59;4978775;28;20469;-83
2021/04/01 00:25:33;;;;;;;34.40;6.40;;;;;;;14.75;30.31;72219.16;4978233;28;20026;-81
2021/04/01 00:28:00;;;;;;;17.70;5.55;;;;;;;15.65;29.95;72319.78;4995036;28;20039;-83
2021/04/01 00:30:27;;;;;;;25.35;6.47;;;;;;;15.59;29.50;72318.75;4978194;28;20109;-83
2021/04/01 00:32:54;;;;;;;26.48;7.30;;;;;;;15.57;28.88;72316.38;5002097;28;20038;-83
2021/04/01 00:35:22;;;;;;;17.95;6.07;;;;;;;14.56;29.02;72197.03;4981325;28;20037;-83
2021/04/01 00:37:49;;;;;;;17.13;5.85;;;;;;;15.43;28.20;72300.22;4980763;28;20034;-81
2021/04/01 00:40:17;;;;;;;21.13;6.57;;;;;;;16.19;27.85;72388.16;4994485;28;20030;-83
2021/04/01 00:42:43;;;;;;;24.80;6.70;;;;;;;15.84;28.51;72336.38;4993924;28;20030;-83
2021/04/01 00:45:12;;;;;;;17.98;6.85;;;;;;;15.77;28.50;72333.53;4993826;28;20101;-82
2021/04/01 00:47:45;;;;;;;28.83;6.95;;;;;;;16.58;28.37;72427.47;4993897;28;20080;-84
2021/04/01 00:50:16;;;;;;;21.77;5.35;;;;;;;15.50;28.13;72308.59;4976925;28;20053;-81
2021/04/01 00:52:43;;;;;;;15.85;5.18;;;;;;;15.74;25.59;72333.94;4980013;28;20030;-83
2021/04/01 00:55:11;;;;;;;25.38;5.68;;;;;;;16.23;26.58;72386.78;4977596;28;20030;-84
2021/04/01 00:57:41;;;;;;;13.60;4.90;;;;;;;15.80;26.62;72342.69;4975489;28;20022;-84
2021/04/01 01:00:09;;;;;;;;;;;;;;;16.86;26.44;72459.19;4976533;28;20026;-83
2021/04/01 01:02:36;;;;;;;23.80;6.57;;;;;;;15.40;24.32;72288.91;4995128;28;19968;-84
2021/04/01 01:05:05;;;;;;;23.38;5.60;;;;;;;16.31;24.68;72398.53;4988046;28;20056;-82
2021/04/01 01:07:32;;;;;;;20.00;4.95;;;;;;;16.57;24.16;72425.69;5009447;28;20496;-82
2021/04/01 01:09:59;;;;;;;26.60;5.82;;;;;;;16.31;23.19;72398.53;5009635;28;20034;-83
2021/04/01 01:12:26;;;;;;;15.52;4.57;;;;;;;16.03;23.42;72360.69;5009559;28;20042;-81
2021/04/01 01:14:54;;;;;;;16.25;6.05;;;;;;;16.64;23.62;72439.59;5011316;28;20408;-82
2021/04/01 01:17:20;;;;;;;12.23;4.45;;;;;;;15.43;23.16;72300.84;5008816;28;20030;-83
2021/04/01 01:19:53;;;;;;;20.67;4.85;;;;;;;16.76;22.66;72448.41;4994728;28;20026;-82
2021/04/01 01:22:21;;;;;;;14.93;4.80;;;;;;;15.91;22.72;72349.69;4978455;28;20038;-83
2021/04/01 01:24:48;;;;;;;20.25;6.07;;;;;;;16.26;22.67;72396.53;4978875;28;20022;-81
2021/04/01 01:27:15;;;;;;;22.35;6.60;;;;;;;15.44;22.10;72301.41;4995426;28;20026;-82
2021/04/01 01:29:47;;;;;;;24.13;5.70;;;;;;;16.75;21.93;72447.22;4994596;28;20027;-83
2021/04/01 01:32:16;;;;;;;26.98;5.53;;;;;;;15.99;21.84;72362.06;4977607;28;20399;-83
2021/04/01 01:34:44;;;;;;;17.23;5.90;;;;;;;17.10;21.30;72487.94;4977718;28;20034;-84
2021/04/01 01:37:11;;;;;;;25.77;4.65;;;;;;;16.42;21.68;72408.94;4996227;28;20109;-83
2021/04/01 01:39:38;;;;;;;24.50;6.07;;;;;;;16.31;21.69;72401.91;4997002;28;20080;-83
2021/04/01 01:42:06;;;;;;;18.60;5.38;;;;;;;17.34;21.17;72515.47;4978519;28;20368;-83
2021/04/01 01:44:33;;;;;;;18.65;5.25;;;;;;;16.86;21.39;72461.97;4978028;28;20035;-84
2021/04/01 01:47:00;;;;;;;18.55;5.28;;;;;;;16.81;21.28;72456.56;4991640;28;20018;-84
2021/04/01 01:49:27;;;;;;;15.85;4.70;;;;;;;17.52;21.75;72538.59;4978178;28;20566;-84
2021/04/01 01:51:54;;;;;;;14.60;5.20;;;;;;;17.01;21.39;72479.94;4978553;28;20034;-83
2021/04/01 01:54:21;;;;;;;32.72;6.70;;;;;;;16.91;21.58;72465.78;4977266;28;20033;-83
2021/04/01 01:56:48;;;;;;;21.80;4.43;;;;;;;17.34;20.97;72515.47;4994534;28;20027;-83
2021/04/01 01:59:14;;;;;;;25.95;5.32;;;;;;;16.54;21.42;72426.03;4975230;28;20532;-84
2021/04/01 02:01:41;;;;;;;29.02;8.68;;;;;;;17.67;21.15;72552.56;4993663;28;20022;-83
2021/04/01 02:04:08;;;;;;;21.42;5.05;;;;;;;16.93;21.35;72464.78;4993681;28;20027;-83
2021/04/01 02:06:35;;;;;;;16.67;5.38;;;;;;;16.66;20.68;72433.66;4994641;28;20103;-83
2021/04/01 02:09:04;;;;;;;29.05;5.80;;;;;;;16.68;20.71;72438.84;4978037;28;20030;-85
2021/04/01 02:11:31;;;;;;;18.17;5.60;;;;;;;17.10;21.16;72487.31;4975307;28;20037;-83
2021/04/01 02:13:57;;;;;;;27.83;6.45;;;;;;;17.46;21.43;72529.22;4974579;28;20023;-84
2021/04/01 02:16:26;;;;;;;21.70;6.47;;;;;;;16.92;21.85;72469.13;4974125;28;20078;-82
2021/04/01 02:18:53;;;;;;;17.80;4.72;;;;;;;16.86;20.50;72461.97;4992341;28;20030;-83
2021/04/01 02:21:21;;;;;;;30.88;5.78;;;;;;;17.02;21.35;72478.34;4974646;28;20057;-82
2021/04/01 02:23:48;;;;;;;27.13;6.15;;;;;;;17.92;21.20;72581.91;4974634;28;20034;-82
2021/04/01 02:26:15;;;;;;;27.17;5.95;;;;;;;18.30;21.71;72631.22;4990462;28;20029;-83
2021/04/01 02:28:42;;;;;;;27.00;8.05;;;;;;;17.74;20.97;72564.34;4992421;28;20022;-83
2021/04/01 02:31:10;;;;;;;23.38;6.28;;;;;;;16.82;21.54;72455.59;4991831;28;20027;-82
2021/04/01 02:33:39;;;;;;;17.90;6.03;;;;;;;16.33;21.96;72401.53;4974318;28;20145;-83
2021/04/01 02:36:07;;;;;;;21.13;5.45;;;;;;;18.32;21.74;72628.06;4991784;28;20026;-82
2021/04/01 02:38:34;;;;;;;22.55;6.47;;;;;;;17.87;21.40;72579.31;4992395;28;20026;-83
2021/04/01 02:41:00;;;;;;;15.10;6.60;;;;;;;18.32;21.94;72628.66;4974452;28;20117;-83
2021/04/01 02:43:33;;;;;;;26.48;6.95;;;;;;;18.27;21.76;72622.66;4974572;28;20100;-82
2021/04/01 02:46:04;;;;;;;23.23;6.95;;;;;;;18.60;21.11;72660.41;4992485;28;20026;-83
2021/04/01 02:48:32;;;;;;;19.98;7.65;;;;;;;17.48;20.86;72531.03;4974459;28;20030;-83
2021/04/01 02:51:00;;;;;;;28.95;6.15;;;;;;;18.13;20.80;72612.03;4974072;28;20049;-82
2021/04/01 02:53:27;;;;;;;23.50;6.88;;;;;;;17.39;21.05;72520.25;4973988;28;20041;-83
2021/04/01 02:55:55;;;;;;;18.90;6.22;;;;;;;17.02;21.09;72478.34;4991369;28;20446;-83
2021/04/01 02:58:23;;;;;;;21.52;6.88;;;;;;;18.21;22.05;72618.25;4991364;28;20022;-83
2021/04/01 03:00:51;;;;;;;18.38;6.28;;;;;;;18.27;21.31;72622.06;4991052;28;20041;-83
2021/04/01 03:03:31;;;;;;;21.58;8.45;;;;;;;17.83;21.45;72573.91;4991484;28;20027;-83
2021/04/01 03:06:00;;;;;;;22.35;6.63;;;;;;;18.22;20.85;72616.06;4991512;28;20030;-84
2021/04/01 03:08:27;;;;;;;19.90;7.05;;;;;;;17.21;21.43;72500.50;4991442;28;20034;-83
2021/04/01 03:10:54;;;;;;;22.73;6.72;;;;;;;18.30;22.28;72628.44;4974147;28;20503;-83
2021/04/01 03:13:21;;;;;;;20.90;5.90;;;;;;;18.17;21.89;72614.06;4990650;28;20042;-83
2021/04/01 03:15:51;;;;;;;18.58;8.27;;;;;;;18.90;21.08;72697.94;4975906;28;20174;-83
2021/04/01 03:18:20;;;;;;;29.17;6.95;;;;;;;18.96;21.64;72707.91;4977451;28;20431;-83
2021/04/01 03:20:48;;;;;;;24.88;6.38;;;;;;;19.01;21.53;72707.72;4993741;28;20026;-84
2021/04/01 03:23:15;;;;;;;27.38;8.38;;;;;;;17.77;21.83;72567.94;4994515;28;20042;-83
2021/04/01 03:25:42;;;;;;;21.65;5.70;;;;;;;19.25;22.11;72735.34;4995926;28;20041;-83
2021/04/01 03:28:10;;;;;;;24.20;7.40;;;;;;;18.67;21.40;72670.97;4995642;28;20035;-83
2021/04/01 03:30:41;;;;;;;17.88;8.32;;;;;;;18.81;21.10;72687.16;4978032;28;20482;-84
2021/04/01 03:33:08;;;;;;;16.58;6.05;;;;;;;18.17;21.44;72610.69;4995826;28;20034;-84
2021/04/01 03:35:35;;;;;;;25.95;7.10;;;;;;;18.14;21.70;72607.69;4995098;28;20030;-84
2021/04/01 03:38:04;;;;;;;31.85;7.28;;;;;;;18.98;21.32;72710.31;4994998;28;20025;-84
2021/04/01 03:40:31;;;;;;;24.80;6.18;;;;;;;18.60;22.25;72663.19;4994609;28;20037;-83
2021/04/01 03:42:58;;;;;;;21.25;5.38;;;;;;;18.72;21.33;72674.78;4977117;28;20483;-83
2021/04/01 03:45:25;;;;;;;29.33;6.18;;;;;;;18.71;21.06;72676.38;4977394;28;20026;-84
2021/04/01 03:47:53;;;;;;;20.00;6.55;;;;;;;18.71;20.36;72673.59;4977837;28;20057;-82
2021/04/01 03:50:21;;;;;;;25.30;6.95;;;;;;;18.68;20.28;72675.56;4994747;28;20038;-83
2021/04/01 03:52:48;;;;;;;19.38;5.57;;;;;;;18.97;20.10;72702.94;4977006;28;20034;-84
2021/04/01 03:57:43;;;;;;;17.75;6.47;;;;;;;18.30;19.65;72631.81;4994559;28;20018;-83
2021/04/01 04:00:28;;;;;;;15.13;5.18;;;;;;;19.25;20.29;72735.94;4994302;28;20031;-84
2021/04/01 04:13:13;;;;;;;22.00;6.18;;;;;;;18.72;19.44;72674.19;4995532;28;20022;-83
2021/04/01 04:15:41;;;;;;;16.40;5.57;;;;;;;19.59;19.57;72777.69;4995727;28;20406;-83
2021/04/01 04:18:08;;;;;;;13.63;5.18;;;;;;;18.39;19.12;72641.41;4978272;28;20478;-83
2021/04/01 04:20:35;;;;;;;14.60;5.20;;;;;;;19.10;19.35;72720.72;4981358;28;20129;-83
2021/04/01 04:23:02;;;;;;;11.35;4.68;;;;;;;19.51;19.57;72765.91;4980969;28;20038;-82
2021/04/01 04:25:29;;;;;;;21.27;5.18;;;;;;;20.00;18.43;72822.28;4997793;28;20030;-84
2021/04/01 04:30:27;;;;;;;11.80;4.47;;;;;;;20.13;18.02;72837.28;4995891;28;20109;-83
2021/04/01 04:32:55;;;;;;;24.15;5.03;;;;;;;19.88;18.53;72807.84;4977396;28;20030;-84
2021/04/01 04:35:22;;;;;;;22.50;4.97;;;;;;;19.42;18.52;72755.72;4993917;28;20033;-83
2021/04/01 04:37:49;;;;;;;14.55;4.70;;;;;;;19.96;18.52;72817.47;4994246;28;20092;-83
2021/04/01 04:40:16;;;;;;;25.52;5.47;;;;;;;19.71;18.45;72791.47;4976594;28;20054;-84
2021/04/01 04:42:43;;;;;;;22.83;4.75;;;;;;;19.42;18.35;72757.88;4994323;28;20037;-84
2021/04/01 04:45:11;;;;;;;17.60;5.95;;;;;;;19.72;18.18;72789.88;4976950;28;20056;-84
2021/04/01 04:47:38;;;;;;;15.00;4.57;;;;;;;20.28;18.42;72854.66;4976889;28;20093;-83
2021/04/01 04:50:06;;;;;;;24.73;4.95;;;;;;;19.64;17.87;72780.28;4976118;28;20078;-83
2021/04/01 04:52:35;;;;;;;17.10;5.30;;;;;;;19.71;18.54;72790.88;4993629;28;20041;-84
2021/04/01 04:55:04;;;;;;;14.38;4.63;;;;;;;19.66;18.99;72782.69;4993719;28;20026;-83
2021/04/01 04:57:37;;;;;;;17.88;5.53;;;;;;;19.63;18.94;72779.69;4975699;28;20036;-83
2021/04/01 05:05:30;;;;;;;14.15;4.20;;;;;;;20.27;18.40;72852.88;4996565;28;20153;-83
2021/04/01 05:07:56;;;;;;;15.80;6.88;;;;;;;19.86;17.89;72803.28;4995925;28;20161;-84
2021/04/01 05:10:23;;;;;;;13.55;4.85;;;;;;;19.62;18.05;72777.88;4977702;28;20035;-83
2021/04/01 05:13:11;;;;;;;12.23;4.70;;;;;;;19.63;17.99;72776.28;4995134;28;20049;-83
2021/04/01 05:15:46;;;;;;;21.40;5.35;;;;;;;19.98;17.86;72819.28;4994126;28;20231;-83
2021/04/01 05:18:18;;;;;;;21.10;7.07;;;;;;;19.92;18.27;72810.47;4996512;28;20027;-82
2021/04/01 05:20:48;;;;;;;23.17;6.43;;;;;;;20.55;16.99;72888.66;4993301;28;20042;-83
2021/04/01 05:25:48;;;;;;;20.85;5.03;;;;;;;20.10;17.35;72837.06;4993566;28;20030;-83
2021/04/01 05:28:27;;;;;;;16.27;5.55;;;;;;;19.86;17.32;72805.47;4975935;28;20065;-83
2021/04/01 05:30:53;;;;;;;19.52;5.13;;;;;;;20.44;17.43;72872.66;4992877;28;20033;-84
2021/04/01 05:33:20;;;;;;;17.73;5.90;;;;;;;21.07;17.25;72948.66;4992079;28;20025;-83
2021/04/01 05:35:47;;;;;;;22.13;5.55;;;;;;;19.80;17.43;72799.47;4992147;28;20026;-85
2021/04/01 05:38:14;;;;;;;16.20;5.32;;;;;;;20.21;17.05;72849.66;4994056;28;20045;-84
2021/04/01 05:40:41;;;;;;;26.20;4.78;;;;;;;20.51;17.12;72878.28;5008254;28;20023;-82
2021/04/01 05:43:12;;;;;;;14.20;4.22;;;;;;;20.75;17.29;72909.25;4998915;28;20396;-83
2021/04/01 05:45:50;;;;;;;23.42;6.45;;;;;;;20.75;17.45;72911.44;4991503;28;20480;-83
2021/04/01 05:48:32;;;;;;;22.48;5.95;;;;;;;20.84;16.79;72922.28;4993345;28;20026;-84
2021/04/01 05:51:25;;;;;;;25.90;5.32;;;;;;;19.95;17.00;72816.28;4990969;28;20053;-84
2021/04/01 05:54:43;;;;;;;20.98;6.50;;;;;;;20.92;16.88;72929.06;4991214;28;20145;-83
2021/04/01 05:57:27;;;;;;;19.35;4.72;;;;;;;20.60;17.22;72891.84;4992349;28;20018;-82
2021/04/01 06:03:13;;;;;;;18.90;6.72;;;;;;;20.12;17.13;72835.47;4992495;28;20034;-83
2021/04/01 06:05:46;;;;;;;25.70;4.88;;;;;;;20.90;17.25;72926.69;4992211;28;20034;-82
2021/04/01 06:08:20;;;;;;;20.02;4.93;;;;;;;20.23;17.07;72852.06;4992704;28;20065;-83
2021/04/01 06:10:50;;;;;;;13.13;5.15;;;;;;;20.36;17.54;72863.66;4993168;28;20026;-83
2021/04/01 06:13:19;;;;;;;13.10;4.73;;;;;;;21.03;18.21;72944.47;4992009;28;20034;-84
2021/04/01 06:15:48;;;;;;;19.45;5.70;;;;;;;20.98;17.80;72935.09;4991958;28;20049;-84
2021/04/01 06:18:21;;;;;;;19.75;4.68;;;;;;;20.31;17.90;72857.66;4994245;28;20026;-80
2021/04/01 06:20:52;;;;;;;12.80;4.43;;;;;;;20.86;17.40;72924.06;4991685;28;20369;-84
2021/04/01 06:23:29;;;;;;;18.92;5.68;;;;;;;20.91;17.29;72927.25;4993034;28;20045;-84
2021/04/01 06:25:57;;;;;;;27.20;5.90;;;;;;;19.77;17.92;72798.06;4991339;28;20104;-84
2021/04/01 06:28:51;;;;;;;17.10;4.80;;;;;;;20.98;17.34;72935.09;4997348;28;20109;-82
2021/04/01 06:31:26;;;;;;;24.52;5.18;;;;;;;20.79;17.66;72916.84;4977896;28;20030;-83
2021/04/01 06:33:58;;;;;;;26.33;6.43;;;;;;;20.42;17.84;72870.25;4976465;28;20049;-83
2021/04/01 06:36:32;;;;;;;16.90;7.00;;;;;;;19.70;17.66;72787.47;4970889;28;20030;-84
2021/04/01 06:38:59;;;;;;;17.40;5.57;;;;;;;20.70;17.26;72903.25;4971064;28;20598;-84
2021/04/01 06:41:30;;;;;;;28.55;7.13;;;;;;;20.57;17.40;72893.25;4972280;28;20062;-83
2021/04/01 06:44:00;;;;;;;14.68;5.43;;;;;;;20.00;18.58;72822.28;4970953;28;20054;-83
2021/04/01 06:46:30;;;;;;;13.90;4.88;;;;;;;20.65;18.50;72900.66;4972546;28;20034;-83
2021/04/01 06:51:59;;;;;;;21.10;5.40;;;;;;;19.94;18.12;72817.84;4972236;28;20136;-84
2021/04/01 06:54:42;;;;;;;20.10;5.30;;;;;;;20.70;17.89;72902.66;4971886;28;20034;-82
2021/04/01 07:00:16;;;;;;;21.98;5.22;;;;;;;20.30;17.96;72857.06;4971874;28;20026;-83
2021/04/01 07:05:59;;;;;;;24.17;6.00;;;;;;;20.98;18.30;72932.28;4971812;28;20067;-83
2021/04/01 07:08:54;;;;;;;14.13;6.95;;;;;;;21.41;18.38;72984.88;4971911;28;20085;-84
2021/04/01 07:11:42;;;;;;;18.10;5.78;;;;;;;21.53;18.44;72996.50;4971789;28;20019;-82
2021/04/01 07:14:25;;;;;;;17.40;5.05;;;;;;;21.30;18.38;72972.28;4987476;28;20034;-83
2021/04/01 07:47:31;;;;;;;17.90;4.88;;;;;;;20.73;19.02;72906.25;4991367;28;20081;-84
2021/04/01 07:50:12;;;;;;;22.58;5.40;;;;;;;20.67;19.40;72899.06;4973218;28;20054;-83
2021/04/01 07:52:41;;;;;;;22.67;5.95;;;;;;;20.80;19.16;72914.63;4973242;28;20040;-84
2021/04/01 07:55:20;;;;;;;15.40;4.45;;;;;;;21.23;19.62;72963.88;4991034;28;20019;-84
2021/04/01 08:06:19;;;;;;;20.80;5.20;;;;;;;20.82;18.95;72919.84;4990856;28;20388;-83
2021/04/01 08:08:47;;;;;;;21.73;4.97;;;;;;;20.70;19.69;72903.25;4976238;28;20031;-82
2021/04/01 08:11:36;;;;;;;28.30;6.63;;;;;;;20.49;19.74;72881.44;4994361;28;20022;-83
2021/04/01 08:14:16;;;;;;;15.93;5.00;;;;;;;20.11;20.51;72840.47;4976647;28;20022;-83
2021/04/01 08:16:53;;;;;;;;;;;;;;;21.08;20.81;72947.06;4994646;28;20439;-82
2021/04/01 08:19:23;;;;;;;43.05;5.97;;;;;;;20.31;21.11;72857.66;4994594;28;19914;-82
2021/04/01 08:21:52;;;;;;;28.90;6.05;;;;;;;20.61;20.91;72893.06;4993869;28;20026;-82
2021/04/01 08:24:30;;;;;;;22.10;6.60;;;;;;;20.06;21.52;72828.88;4994027;28;20037;-83
2021/04/01 08:27:17;;;;;;;24.35;5.68;;;;;;;20.34;21.10;72867.44;4976443;28;20057;-83
2021/04/01 08:32:46;;;;;;;24.23;5.80;;;;;;;20.21;21.45;72849.06;4993921;28;20030;-82
2021/04/01 08:35:14;;;;;;;31.48;7.13;;;;;;;20.65;21.07;72897.88;4994054;28;20753;-83
2021/04/01 08:37:56;;;;;;;19.48;4.68;;;;;;;20.20;21.52;72845.66;4975281;28;20459;-83
2021/04/01 08:40:24;;;;;;;37.67;6.13;;;;;;;19.63;21.69;72779.09;4993727;28;20064;-83
2021/04/01 08:46:24;;;;;;;26.08;5.95;;;;;;;20.61;21.57;72893.06;4993765;28;20499;-82
2021/04/01 08:49:12;;;;;;;25.70;5.88;;;;;;;20.63;21.07;72898.25;4994092;28;20399;-83
2021/04/01 08:51:47;;;;;;;27.98;5.30;;;;;;;20.67;20.50;72899.66;4993426;28;20057;-83
2021/04/01 08:54:40;;;;;;;38.10;6.97;;;;;;;20.48;20.75;72877.44;4993591;28;20030;-83
2021/04/01 08:57:41;;;;;;;25.73;5.28;;;;;;;19.50;20.78;72766.88;4993212;28;20023;-82
2021/04/01 09:00:13;;;;;;;18.95;5.43;;;;;;;20.09;21.16;72835.88;4986187;28;20042;-84
2021/04/01 09:02:48;;;;;;;28.45;5.30;;;;;;;19.69;21.58;72786.28;4992052;28;20070;-84
2021/04/01 09:05:15;;;;;;;19.55;5.72;;;;;;;20.25;21.50;72856.66;4992255;28;20065;-83
2021/04/01 09:07:45;;;;;;;23.95;5.65;;;;;;;19.72;21.42;72792.66;4992164;28;20034;-84
2021/04/01 09:10:23;;;;;;;;;;;;;;;20.30;22.13;72859.84;4992474;28;20022;-83
2021/04/01 09:15:35;;;;;;;24.00;5.57;;;;;;;19.94;22.39;72815.06;4993685;28;20030;-84
2021/04/01 09:18:04;;;;;;;21.00;5.05;;;;;;;19.70;21.88;72784.69;4991940;28;20037;-83
2021/04/01 09:20:31;;;;;;;20.58;4.80;;;;;;;19.60;21.37;72776.09;4991825;28;20026;-84
2021/04/01 09:23:10;;;;;;;21.85;5.15;;;;;;;20.14;20.79;72840.66;4991768;28;20037;-84
2021/04/01 09:25:46;;;;;;;25.90;5.88;;;;;;;20.09;20.96;72833.06;4993230;28;20030;-83
2021/04/01 09:28:14;;;;;;;22.45;4.55;;;;;;;19.55;21.24;72770.09;4993533;28;20062;-84
2021/04/01 09:30:42;;;;;;;15.00;5.63;;;;;;;19.64;21.19;72783.06;4995702;28;20030;-83
2021/04/01 09:33:14;;;;;;;15.45;4.47;;;;;;;19.75;21.31;72796.28;4994737;28;20027;-83
2021/04/01 09:35:42;;;;;;;21.33;4.47;;;;;;;19.50;21.41;72764.69;4994973;28;20026;-83
2021/04/01 09:38:11;;;;;;;16.20;4.68;;;;;;;19.61;21.59;72774.50;4992947;28;20030;-83
2021/04/01 09:40:43;;;;;;;29.57;5.80;;;;;;;19.45;21.60;72764.28;4993040;28;20030;-83
2021/04/01 09:43:16;;;;;;;26.30;6.22;;;;;;;19.03;21.36;72712.94;4992749;28;20035;-83
2021/04/01 09:45:45;;;;;;;18.52;6.60;;;;;;;19.30;21.65;72740.72;4992092;28;20042;-83
2021/04/01 09:48:13;;;;;;;15.07;4.88;;;;;;;18.41;21.56;72641.63;4995423;28;20066;-84
2021/04/01 09:50:44;;;;;;;14.45;4.03;;;;;;;18.35;21.14;72634.44;5005337;28;20050;-83
2021/04/01 09:53:21;;;;;;;15.90;4.88;;;;;;;18.73;21.01;72681.53;5014000;28;20029;-83
2021/04/01 09:55:51;;;;;;;21.13;4.38;;;;;;;18.64;21.59;72667.38;4977933;28;20041;-83
2021/04/01 09:58:46;;;;;;;16.42;5.68;;;;;;;19.32;21.69;72749.31;4974760;28;20395;-83
2021/04/01 10:04:13;;;;;;;23.65;6.72;;;;;;;19.23;23.49;72735.72;4992285;28;20558;-84
2021/04/01 10:06:50;;;;;;;25.05;9.05;;;;;;;18.70;24.36;72675.16;4974894;28;20447;-82
2021/04/01 10:09:19;;;;;;;34.20;10.32;;;;;;;18.25;24.55;72625.22;4992307;28;20685;-84
2021/04/01 10:11:56;;;;;;;20.38;7.72;;;;;;;18.57;24.75;72660.19;4992024;28;20032;-83
2021/04/01 10:14:24;;;;;;;35.95;10.73;;;;;;;17.80;25.96;72570.91;4992166;28;20031;-84
2021/04/01 10:17:10;;;;;;;25.13;11.48;;;;;;;18.30;26.34;72625.66;4992020;28;20049;-84
2021/04/01 10:19:47;;;;;;;47.60;14.00;;;;;;;18.66;26.66;72667.59;4971748;28;20039;-85
2021/04/01 10:22:29;;;;;;;36.10;12.85;;;;;;;18.16;26.60;72609.47;4979681;28;20133;-83
2021/04/01 10:25:28;;;;;;;28.65;9.90;;;;;;;17.99;26.92;72593.09;4959368;28;20146;-82
2021/04/01 10:28:03;;;;;;;36.05;11.50;;;;;;;18.41;26.66;72641.00;4974310;28;20070;-83
2021/04/01 10:30:34;;;;;;;36.92;12.20;;;;;;;18.42;27.16;72645.59;4974013;28;20428;-83
2021/04/01 10:33:33;;;;;;;32.63;13.40;;;;;;;18.39;27.13;72641.41;4957539;28;20480;-82
2021/04/01 10:36:06;;;;;;;25.55;11.55;;;;;;;18.43;26.49;72641.22;4977849;28;20791;-82
2021/04/01 10:38:36;;;;;;;31.02;10.65;;;;;;;18.43;26.61;72646.78;4987821;28;20471;-84
2021/04/01 10:41:16;;;;;;;24.00;9.23;;;;;;;18.02;26.48;72598.84;4978377;28;20035;-83
2021/04/01 10:43:45;;;;;;;25.90;8.35;;;;;;;17.68;26.81;72559.31;4980613;28;20093;-82
2021/04/01 10:46:20;;;;;;;22.23;8.38;;;;;;;17.02;26.82;72481.13;4974367;28;20032;-84
2021/04/01 10:48:55;;;;;;;24.40;7.35;;;;;;;17.79;26.76;72569.72;4973152;28;20449;-83
2021/04/01 10:51:24;;;;;;;24.20;8.30;;;;;;;17.24;26.54;72500.72;4972316;28;20055;-83
2021/04/01 10:53:51;;;;;;;19.17;6.55;;;;;;;17.48;27.01;72531.03;4972282;28;20035;-84
2021/04/01 10:56:20;;;;;;;19.58;8.10;;;;;;;17.71;27.04;72562.94;4955403;28;20030;-82
2021/04/01 10:58:59;;;;;;;36.85;8.35;;;;;;;17.50;27.17;72539.59;4971946;28;20031;-84
2021/04/01 11:01:38;;;;;;;25.90;6.87;;;;;;;18.01;27.02;72597.66;4978440;28;20141;-83
2021/04/01 11:04:06;;;;;;;29.63;8.03;;;;;;;16.83;26.89;72459.56;4966573;28;20312;-83
2021/04/01 11:06:34;;;;;;;16.80;6.22;;;;;;;17.97;26.86;72590.69;4974431;28;20031;-84
2021/04/01 11:09:03;;;;;;;25.75;7.25;;;;;;;17.06;27.10;72483.13;4982480;28;20072;-85
2021/04/01 11:12:13;;;;;;;22.92;5.57;;;;;;;17.58;27.23;72548.56;4995096;28;20027;-83
2021/04/01 11:14:26;;;;;;;22.00;6.72;;;;;;;17.32;27.18;72515.84;4988615;28;20042;-84
2021/04/01 11:16:53;;;;;;;21.52;6.88;;;;;;;17.82;27.22;72570.53;4989712;28;20073;-85
2021/04/01 11:19:21;;;;;;;22.08;7.57;;;;;;;17.01;26.90;72479.31;4972398;28;21252;-83
2021/04/01 11:21:49;;;;;;;23.88;7.80;;;;;;;17.28;27.79;72513.25;4990593;28;20027;-84
2021/04/01 11:24:28;;;;;;;34.80;7.32;;;;;;;17.67;27.91;72553.19;4990379;28;20069;-83
2021/04/01 11:26:56;;;;;;;31.23;8.63;;;;;;;16.26;27.79;72393.75;4968888;28;20395;-83
2021/04/01 11:29:30;;;;;;;25.45;8.20;;;;;;;17.57;27.99;72541.81;4986367;28;20492;-83
2021/04/01 11:32:15;;;;;;;27.50;8.52;;;;;;;16.19;28.77;72388.16;4990224;28;21058;-83
2021/04/01 11:34:43;;;;;;;31.80;9.43;;;;;;;17.30;28.84;72512.84;4973550;28;20084;-84
2021/04/01 11:37:12;;;;;;;27.42;8.63;;;;;;;17.05;29.08;72481.94;4973094;28;20027;-83
2021/04/01 11:39:40;;;;;;;31.08;8.48;;;;;;;17.13;29.27;72493.09;4990660;28;20038;-83
2021/04/01 11:42:15;;;;;;;26.17;10.68;;;;;;;17.36;28.88;72522.81;4992713;28;20065;-84
2021/04/01 11:44:43;;;;;;;26.48;8.32;;;;;;;16.40;28.53;72409.31;4979134;28;20134;-84
2021/04/01 11:47:20;;;;;;;32.92;7.00;;;;;;;16.58;28.48;72427.47;4977933;28;20034;-84
2021/04/01 11:49:50;;;;;;;24.17;7.70;;;;;;;16.12;28.35;72374.81;4973894;28;20068;-87
2021/04/01 11:52:19;;;;;;;22.52;6.18;;;;;;;17.33;28.10;72519.81;4978436;28;20050;-84
2021/04/01 11:54:51;;;;;;;14.77;5.88;;;;;;;16.65;28.63;72432.47;4986407;28;20052;-86
2021/04/01 11:57:32;;;;;;;26.23;8.35;;;;;;;16.22;29.03;72391.75;4992590;28;20034;-86
2021/04/01 12:00:20;;;;;;;19.50;6.93;;;;;;;16.45;29.03;72417.47;4989476;28;20034;-85
2021/04/01 12:02:48;;;;;;;35.05;8.20;;;;;;;17.07;29.68;72489.88;4982356;28;20144;-86
2021/04/01 12:05:16;;;;;;;20.10;7.07;;;;;;;17.07;29.47;72483.75;4997442;28;20087;-86
2021/04/01 12:07:43;;;;;;;28.48;9.13;;;;;;;16.08;29.69;72372.22;4975423;28;20034;-85
2021/04/01 12:10:15;;;;;;;24.13;7.88;;;;;;;15.49;29.57;72306.78;4978294;28;20031;-89
2021/04/01 12:12:42;;;;;;;27.52;7.82;;;;;;;16.51;29.59;72419.69;4976340;28;20037;-86
2021/04/01 12:15:09;;;;;;;21.40;7.72;;;;;;;16.16;29.92;72384.56;4983139;28;20064;-86
2021/04/01 12:17:40;;;;;;;20.10;7.95;;;;;;;16.89;29.90;72463.38;4981844;28;20034;-85
2021/04/01 12:20:13;;;;;;;43.38;9.05;;;;;;;16.53;29.80;72427.63;4978204;28;20084;-87
2021/04/01 12:22:43;;;;;;;22.55;7.93;;;;;;;15.90;29.74;72354.63;5002025;28;20530;-86
2021/04/01 12:25:13;;;;;;;30.83;10.83;;;;;;;15.97;30.25;72363.03;4984231;28;20036;-85
2021/04/01 12:27:48;;;;;;;24.25;8.07;;;;;;;16.75;30.52;72450.00;5005226;28;20117;-86
2021/04/01 12:30:38;;;;;;;30.33;9.07;;;;;;;16.47;30.24;72420.44;4994763;28;20034;-87
2021/04/01 12:33:08;;;;;;;30.23;8.90;;;;;;;16.18;30.12;72386.34;4985333;28;20026;-86
2021/04/01 12:35:35;;;;;;;28.45;7.25;;;;;;;16.33;30.21;72404.31;4980428;28;20027;-87
2021/04/01 12:38:05;;;;;;;30.83;7.28;;;;;;;15.83;30.20;72346.28;4998755;28;20022;-87
2021/04/01 12:40:41;;;;;;;20.52;6.10;;;;;;;15.96;30.06;72359.06;4990062;28;20039;-87
2021/04/01 12:43:09;;;;;;;28.42;6.72;;;;;;;16.45;29.64;72414.69;4979895;28;20049;-87
2021/04/01 12:45:37;;;;;;;16.35;5.68;;;;;;;14.82;29.09;72224.78;4993769;28;20035;-87
2021/04/01 12:48:08;;;;;;;23.73;5.50;;;;;;;16.05;27.44;72369.22;4975850;28;20085;-86
2021/04/01 12:50:37;;;;;;;16.77;4.13;;;;;;;15.98;25.97;72358.06;4995637;28;20046;-87
2021/04/01 12:53:04;;;;;;;11.45;3.85;;;;;;;16.37;25.22;72406.31;4978733;28;20412;-86
2021/04/01 12:55:40;;;;;;;15.77;4.93;;;;;;;16.46;25.72;72418.66;4975640;28;20492;-87
2021/04/01 12:58:14;;;;;;;12.55;3.63;;;;;;;16.48;23.69;72418.28;4980042;28;20034;-86
2021/04/01 13:01:16;;;;;;;11.15;3.72;;;;;;;15.70;23.82;72326.38;4982852;28;20029;-86
2021/04/01 13:03:34;;;;;;;14.40;4.45;;;;;;;15.79;22.89;72339.31;4984412;28;20047;-86
2021/04/01 13:06:05;;;;;;;19.05;3.88;;;;;;;15.41;23.32;72298.44;4969567;28;20034;-86
2021/04/01 13:08:55;;;;;;;18.73;5.00;;;;;;;15.16;23.14;72269.75;4979628;28;20056;-86
2021/04/01 13:11:24;;;;;;;15.27;3.70;;;;;;;15.94;23.35;72353.91;4979944;28;20092;-86
2021/04/01 13:13:52;;;;;;;16.92;3.78;;;;;;;16.40;23.44;72412.09;4977612;28;20030;-88